createdAt,value
2018-05-10T00:01:48.643Z,17.10
2018-05-10T00:04:17.165Z,17.10
2018-05-10T00:06:45.505Z,17.00
2018-05-10T00:09:14.776Z,17.00
2018-05-10T00:11:43.317Z,16.90
2018-05-10T00:14:11.858Z,16.90
2018-05-10T00:16:40.372Z,16.90
2018-05-10T00:19:09.667Z,16.90
2018-05-10T00:21:38.944Z,16.80
2018-05-10T00:24:07.692Z,16.80
2018-05-10T00:26:36.201Z,16.70
2018-05-10T00:29:04.816Z,16.60
2018-05-10T00:31:34.119Z,16.60
2018-05-10T00:34:11.343Z,16.60
2018-05-10T00:36:39.887Z,16.60
2018-05-10T00:39:09.196Z,16.50
2018-05-10T00:41:37.737Z,16.50
2018-05-10T00:44:06.256Z,16.50
2018-05-10T00:46:35.563Z,16.40
2018-05-10T00:49:04.864Z,16.30
2018-05-10T00:51:33.405Z,16.30
2018-05-10T00:54:01.927Z,16.20
2018-05-10T00:56:30.474Z,16.20
2018-05-10T00:58:59.013Z,16.20
2018-05-10T01:01:27.578Z,16.30
2018-05-10T01:03:56.116Z,16.30
2018-05-10T01:06:24.629Z,16.20
2018-05-10T01:08:53.164Z,16.30
2018-05-10T01:11:21.716Z,16.20
2018-05-10T01:13:50.368Z,16.20
2018-05-10T01:16:18.908Z,16.20
2018-05-10T01:18:47.415Z,16.20
2018-05-10T01:21:15.958Z,16.10
2018-05-10T01:23:44.558Z,16.00
2018-05-10T01:26:13.110Z,16.00
2018-05-10T01:28:41.648Z,16.00
2018-05-10T01:31:10.173Z,15.90
2018-05-10T01:33:38.712Z,15.90
2018-05-10T01:36:19.757Z,15.90
2018-05-10T01:38:48.297Z,15.80
2018-05-10T01:41:16.856Z,15.80
2018-05-10T01:43:45.398Z,15.70
2018-05-10T01:46:13.737Z,15.60
2018-05-10T01:48:42.360Z,15.50
2018-05-10T01:51:10.881Z,15.40
2018-05-10T01:53:39.439Z,15.40
2018-05-10T01:56:07.980Z,15.30
2018-05-10T01:58:37.265Z,15.20
2018-05-10T02:01:06.576Z,15.20
2018-05-10T02:03:35.849Z,15.20
2018-05-10T02:06:04.174Z,15.10
2018-05-10T02:08:32.715Z,15.20
2018-05-10T02:11:01.241Z,15.20
2018-05-10T02:13:29.800Z,15.20
2018-05-10T02:15:58.329Z,15.10
2018-05-10T02:18:26.863Z,15.00
2018-05-10T02:20:56.163Z,14.80
2018-05-10T02:23:25.468Z,14.80
2018-05-10T02:25:54.775Z,14.70
2018-05-10T02:28:23.280Z,14.70
2018-05-10T02:30:51.812Z,14.70
2018-05-10T02:33:20.325Z,14.60
2018-05-10T02:35:48.884Z,14.60
2018-05-10T02:38:17.397Z,14.60
2018-05-10T02:40:45.929Z,14.50
2018-05-10T02:43:14.527Z,14.50
2018-05-10T02:45:43.051Z,14.40
2018-05-10T02:48:11.606Z,14.40
2018-05-10T02:50:40.344Z,14.30
2018-05-10T02:53:08.876Z,14.30
2018-05-10T02:55:38.159Z,14.10
2018-05-10T02:58:06.817Z,14.10
2018-05-10T03:00:35.353Z,14.10
2018-05-10T03:03:03.873Z,14.10
2018-05-10T03:05:32.405Z,14.00
2018-05-10T03:08:01.680Z,13.80
2018-05-10T03:10:30.236Z,13.80
2018-05-10T03:12:58.753Z,13.80
2018-05-10T03:15:28.075Z,13.80
2018-05-10T03:17:57.367Z,13.80
2018-05-10T03:20:26.656Z,13.80
2018-05-10T03:22:55.196Z,13.80
2018-05-10T03:25:23.569Z,13.70
2018-05-10T03:27:52.122Z,13.70
2018-05-10T03:30:20.657Z,13.60
2018-05-10T03:32:49.399Z,13.50
2018-05-10T03:35:17.952Z,13.50
2018-05-10T03:37:46.455Z,13.50
2018-05-10T03:40:14.997Z,13.40
2018-05-10T03:42:43.504Z,13.40
2018-05-10T03:45:12.819Z,13.30
2018-05-10T03:47:42.092Z,13.20
2018-05-10T03:50:10.626Z,13.20
2018-05-10T03:52:39.133Z,13.10
2018-05-10T03:55:07.668Z,13.10
2018-05-10T03:57:36.173Z,13.00
2018-05-10T04:00:04.087Z,13.10
2018-05-10T04:05:52.039Z,13.20
2018-05-10T04:08:31.731Z,13.20
2018-05-10T04:14:09.684Z,13.20
2018-05-10T04:16:38.251Z,13.20
2018-05-10T04:19:06.787Z,13.20
2018-05-10T04:21:35.353Z,13.20
2018-05-10T04:24:03.917Z,13.10
2018-05-10T04:26:32.450Z,13.00
2018-05-10T04:29:01.014Z,13.00
2018-05-10T04:31:29.549Z,13.10
2018-05-10T04:33:58.101Z,13.20
2018-05-10T04:36:26.675Z,13.30
2018-05-10T04:38:55.213Z,13.40
2018-05-10T04:41:23.780Z,13.50
2018-05-10T04:43:53.075Z,13.60
2018-05-10T04:46:22.410Z,13.70
2018-05-10T04:48:50.948Z,13.70
2018-05-10T04:51:19.510Z,13.80
2018-05-10T04:53:48.050Z,13.90
2018-05-10T04:56:16.617Z,14.10
2018-05-10T04:58:45.151Z,14.40
2018-05-10T05:01:13.705Z,14.80
2018-05-10T05:03:43.031Z,15.20
2018-05-10T05:06:11.595Z,15.20
2018-05-10T05:08:40.921Z,15.10
2018-05-10T05:11:09.495Z,15.10
2018-05-10T05:13:38.097Z,15.40
2018-05-10T05:16:06.373Z,15.70
2018-05-10T05:18:34.914Z,16.10
2018-05-10T05:21:03.498Z,16.20
2018-05-10T05:23:32.814Z,16.80
2018-05-10T05:26:02.149Z,16.90
2018-05-10T05:28:30.690Z,16.80
2018-05-10T05:30:59.257Z,17.00
2018-05-10T05:33:27.790Z,17.10
2018-05-10T05:35:56.366Z,17.30
2018-05-10T05:38:25.663Z,17.30
2018-05-10T05:40:55.038Z,17.50
2018-05-10T05:43:23.647Z,17.50
2018-05-10T05:45:52.329Z,17.80
2018-05-10T05:48:21.662Z,18.20
2018-05-10T05:50:50.246Z,18.10
2018-05-10T05:53:18.825Z,18.30
2018-05-10T05:55:47.406Z,18.50
2018-05-10T05:58:16.783Z,18.80
2018-05-10T06:01:05.104Z,18.70
2018-05-10T06:03:33.671Z,19.00
2018-05-10T06:06:02.229Z,19.30
2018-05-10T06:08:31.529Z,19.70
2018-05-10T06:11:05.502Z,20.10
2018-05-10T06:13:34.046Z,20.00
2018-05-10T06:16:02.724Z,19.70
2018-05-10T06:18:31.349Z,19.70
2018-05-10T06:21:00.022Z,19.70
2018-05-10T06:23:28.720Z,20.10
2018-05-10T06:25:57.257Z,20.60
2018-05-10T06:28:25.862Z,20.80
2018-05-10T06:30:54.402Z,21.30
2018-05-10T06:33:23.739Z,21.80
2018-05-10T06:35:53.090Z,22.00
2018-05-10T06:38:21.652Z,22.00
2018-05-10T06:40:50.198Z,22.20
2018-05-10T06:43:18.755Z,22.10
2018-05-10T06:45:47.334Z,21.80
2018-05-10T06:48:20.184Z,21.80
2018-05-10T06:50:49.510Z,21.70
2018-05-10T06:53:18.058Z,21.70
2018-05-10T06:55:47.427Z,21.70
2018-05-10T06:58:15.972Z,21.70
2018-05-10T07:00:44.530Z,21.90
2018-05-10T07:03:13.068Z,22.10
2018-05-10T07:05:41.838Z,22.10
2018-05-10T07:08:10.400Z,22.00
2018-05-10T07:10:39.703Z,21.70
2018-05-10T07:13:09.034Z,21.90
2018-05-10T07:15:37.570Z,21.90
2018-05-10T07:18:06.136Z,21.90
2018-05-10T07:20:34.658Z,22.10
2018-05-10T07:23:03.530Z,22.10
2018-05-10T07:25:32.107Z,22.20
2018-05-10T07:28:00.755Z,22.40
2018-05-10T07:30:29.321Z,22.40
2018-05-10T07:32:58.622Z,22.30
2018-05-10T07:35:27.393Z,22.30
2018-05-10T07:37:55.958Z,22.40
2018-05-10T07:40:24.558Z,22.40
2018-05-10T07:42:53.097Z,22.40
2018-05-10T07:45:21.715Z,22.30
2018-05-10T07:47:50.247Z,22.30
2018-05-10T07:50:18.826Z,22.20
2018-05-10T07:52:51.768Z,22.70
2018-05-10T07:55:20.460Z,22.70
2018-05-10T07:57:49.114Z,22.60
2018-05-10T08:00:17.673Z,22.70
2018-05-10T08:02:46.274Z,22.60
2018-05-10T08:05:14.805Z,22.60
2018-05-10T08:07:43.379Z,23.00
2018-05-10T08:10:11.995Z,23.00
2018-05-10T08:12:40.687Z,23.10
2018-05-10T08:15:09.249Z,22.90
2018-05-10T08:17:37.795Z,22.90
2018-05-10T08:20:06.466Z,23.10
2018-05-10T08:22:35.022Z,23.10
2018-05-10T08:25:03.646Z,23.30
2018-05-10T08:27:41.092Z,23.30
2018-05-10T08:30:09.687Z,23.30
2018-05-10T08:32:38.268Z,23.40
2018-05-10T08:35:06.865Z,23.50
2018-05-10T08:37:35.461Z,23.70
2018-05-10T08:40:03.766Z,23.90
2018-05-10T08:42:32.381Z,23.70
2018-05-10T08:45:01.863Z,23.70
2018-05-10T08:47:30.531Z,23.60
2018-05-10T08:49:58.768Z,23.20
2018-05-10T08:52:27.388Z,22.60
2018-05-10T08:54:56.116Z,23.10
2018-05-10T08:57:24.712Z,23.70
2018-05-10T08:59:53.314Z,23.60
2018-05-10T09:02:21.903Z,22.90
2018-05-10T09:04:50.570Z,22.50
2018-05-10T09:07:19.231Z,22.50
2018-05-10T09:09:47.942Z,22.30
2018-05-10T09:12:16.511Z,22.40
2018-05-10T09:14:45.143Z,22.60
2018-05-10T09:17:13.759Z,23.20
2018-05-10T09:19:42.299Z,22.90
2018-05-10T09:22:22.265Z,22.70
2018-05-10T09:24:50.811Z,22.30
2018-05-10T09:27:25.048Z,22.70
2018-05-10T09:29:53.586Z,22.90
2018-05-10T09:32:22.168Z,23.30
2018-05-10T09:34:50.717Z,23.10
2018-05-10T09:37:19.306Z,23.40
2018-05-10T09:39:47.846Z,23.10
2018-05-10T09:42:17.178Z,23.80
2018-05-10T09:44:45.754Z,23.80
2018-05-10T09:47:14.522Z,23.50
2018-05-10T09:49:43.099Z,23.50
2018-05-10T09:52:11.677Z,23.10
2018-05-10T09:54:40.273Z,23.30
2018-05-10T09:57:08.881Z,24.30
2018-05-10T09:59:38.420Z,24.40
2018-05-10T10:02:06.998Z,24.50
2018-05-10T10:04:38.852Z,24.50
2018-05-10T10:07:07.436Z,24.10
2018-05-10T10:09:36.015Z,24.10
2018-05-10T10:12:04.561Z,24.00
2018-05-10T10:14:33.133Z,24.30
2018-05-10T10:17:01.708Z,24.60
2018-05-10T10:19:30.256Z,24.80
2018-05-10T10:21:59.586Z,24.30
2018-05-10T10:24:28.151Z,24.20
2018-05-10T10:26:56.683Z,24.20
2018-05-10T10:29:25.458Z,24.10
2018-05-10T10:31:54.144Z,24.10
2018-05-10T10:34:22.775Z,24.10
2018-05-10T10:36:52.103Z,24.30
2018-05-10T10:39:20.683Z,24.30
2018-05-10T10:41:50.006Z,24.80
2018-05-10T10:44:18.591Z,24.70
2018-05-10T10:46:52.718Z,25.10
2018-05-10T10:49:21.293Z,25.90
2018-05-10T10:54:52.379Z,25.50
2018-05-10T10:57:20.954Z,25.50
2018-05-10T10:59:49.503Z,25.60
2018-05-10T11:02:18.865Z,25.50
2018-05-10T11:04:47.407Z,25.50
2018-05-10T11:07:21.102Z,25.90
2018-05-10T11:09:50.426Z,25.40
2018-05-10T11:12:19.004Z,25.40
2018-05-10T11:14:47.637Z,25.30
2018-05-10T11:17:16.199Z,25.20
2018-05-10T11:19:44.775Z,25.40
2018-05-10T11:22:21.394Z,24.90
2018-05-10T11:24:49.986Z,25.10
2018-05-10T11:27:19.685Z,25.30
2018-05-10T11:29:49.148Z,25.50
2018-05-10T11:32:17.759Z,25.50
2018-05-10T11:34:46.345Z,25.40
2018-05-10T11:37:14.876Z,25.20
2018-05-10T11:39:43.464Z,25.10
2018-05-10T11:42:12.875Z,25.20
2018-05-10T11:44:42.265Z,24.70
2018-05-10T11:47:11.627Z,24.80
2018-05-10T11:49:40.375Z,24.80
2018-05-10T11:52:08.970Z,24.10
2018-05-10T11:54:38.283Z,23.70
2018-05-10T11:57:06.867Z,23.60
2018-05-10T11:59:35.735Z,23.50
2018-05-10T12:02:08.174Z,25.20
2018-05-10T12:04:38.803Z,25.10
2018-05-10T12:07:07.972Z,25.60
2018-05-10T12:09:36.539Z,25.30
2018-05-10T12:12:05.872Z,24.10
2018-05-10T12:14:34.447Z,24.00
2018-05-10T12:17:03.011Z,24.00
2018-05-10T12:19:32.354Z,24.20
2018-05-10T12:22:00.953Z,24.20
2018-05-10T12:24:32.562Z,24.10
2018-05-10T12:27:01.919Z,23.70
2018-05-10T12:29:30.449Z,23.70
2018-05-10T12:31:59.773Z,23.50
2018-05-10T12:34:28.458Z,23.50
2018-05-10T12:36:57.043Z,23.60
2018-05-10T12:39:26.419Z,23.60
2018-05-10T12:41:54.982Z,23.60
2018-05-10T12:44:23.540Z,23.60
2018-05-10T12:46:52.084Z,23.20
2018-05-10T12:49:21.427Z,23.20
2018-05-10T12:51:50.007Z,23.20
2018-05-10T12:54:18.551Z,23.80
2018-05-10T12:56:47.135Z,23.90
2018-05-10T12:59:15.667Z,23.70
2018-05-10T13:01:44.238Z,24.20
2018-05-10T13:04:12.806Z,23.90
2018-05-10T13:06:41.442Z,23.30
2018-05-10T13:09:10.163Z,23.20
2018-05-10T13:11:38.691Z,23.10
2018-05-10T13:14:07.276Z,23.00
2018-05-10T13:16:44.126Z,22.40
2018-05-10T13:19:12.677Z,22.20
2018-05-10T13:21:41.316Z,21.70
2018-05-10T13:24:10.515Z,21.50
2018-05-10T13:26:39.125Z,21.10
2018-05-10T13:29:07.689Z,21.00
2018-05-10T13:31:37.225Z,19.90
2018-05-10T13:34:06.771Z,19.90
2018-05-10T13:36:36.221Z,19.80
2018-05-10T13:42:09.639Z,19.80
2018-05-10T13:44:39.008Z,20.20
2018-05-10T13:47:07.594Z,20.20
2018-05-10T13:49:39.919Z,20.70
2018-05-10T13:52:08.553Z,20.80
2018-05-10T13:57:42.286Z,20.80
2018-05-10T14:00:10.897Z,20.80
2018-05-10T14:02:40.257Z,20.10
2018-05-10T14:05:08.873Z,20.10
2018-05-10T14:07:37.446Z,19.80
2018-05-10T14:10:06.814Z,19.40
2018-05-10T14:12:46.636Z,19.70
2018-05-10T14:15:27.295Z,19.70
2018-05-10T14:17:57.877Z,19.70
2018-05-10T14:20:26.502Z,19.70
2018-05-10T14:22:55.877Z,19.40
2018-05-10T14:25:24.592Z,19.30
2018-05-10T14:27:54.077Z,19.10
2018-05-10T14:30:22.756Z,19.00
2018-05-10T14:32:51.757Z,18.90
2018-05-10T14:35:20.399Z,18.90
2018-05-10T14:37:49.058Z,18.70
2018-05-10T14:40:17.669Z,18.10
2018-05-10T14:42:46.131Z,18.20
2018-05-10T14:45:14.756Z,18.10
2018-05-10T14:47:43.383Z,18.40
2018-05-10T14:50:12.065Z,18.60
2018-05-10T14:52:40.711Z,18.60
2018-05-10T14:55:09.382Z,18.50
2018-05-10T14:57:38.833Z,18.50
2018-05-10T15:00:07.472Z,18.50
2018-05-10T15:02:36.140Z,18.50
2018-05-10T15:05:04.830Z,18.40
2018-05-10T15:07:33.452Z,18.60
2018-05-10T15:10:02.140Z,18.60
2018-05-10T15:12:30.830Z,18.90
2018-05-10T15:14:59.533Z,18.90
2018-05-10T15:17:28.157Z,18.90
2018-05-10T15:19:56.801Z,18.80
2018-05-10T15:22:25.457Z,18.70
2018-05-10T15:24:55.234Z,18.60
2018-05-10T15:27:23.751Z,18.50
2018-05-10T15:29:59.812Z,18.50
2018-05-10T15:32:28.489Z,18.40
2018-05-10T15:34:57.112Z,18.50
2018-05-10T15:37:26.512Z,18.10
2018-05-10T15:39:55.930Z,17.90
2018-05-10T15:42:24.729Z,17.80
2018-05-10T15:44:53.377Z,17.80
2018-05-10T15:47:22.025Z,17.70
2018-05-10T15:49:50.711Z,17.70
2018-05-10T15:52:19.467Z,17.60
2018-05-10T15:54:48.887Z,17.40
2018-05-10T15:57:22.038Z,17.40
2018-05-10T15:59:51.479Z,17.20
2018-05-10T16:02:20.145Z,17.20
2018-05-10T16:04:50.454Z,17.10
2018-05-10T16:07:25.006Z,16.90
2018-05-10T16:09:56.442Z,16.90
2018-05-10T16:12:25.039Z,16.80
2018-05-10T16:14:54.468Z,16.90
2018-05-10T16:17:23.114Z,16.80
2018-05-10T16:19:51.830Z,16.80
2018-05-10T16:22:24.977Z,16.60
2018-05-10T16:24:53.575Z,16.60
2018-05-10T16:27:22.201Z,16.60
2018-05-10T16:30:02.634Z,16.60
2018-05-10T16:32:33.245Z,16.50
2018-05-10T16:35:20.528Z,16.50
2018-05-10T16:38:14.126Z,16.60
2018-05-10T16:40:42.943Z,16.50
2018-05-10T16:43:14.145Z,16.40
2018-05-10T16:45:42.808Z,16.40
2018-05-10T16:51:05.831Z,16.10
2018-05-10T16:53:40.114Z,16.00
2018-05-10T16:56:16.176Z,15.90
2018-05-10T16:59:00.134Z,15.80
2018-05-10T17:01:29.558Z,15.90
2018-05-10T17:03:58.188Z,15.90
2018-05-10T17:06:26.809Z,15.80
2018-05-10T17:08:56.198Z,15.80
2018-05-10T17:11:25.928Z,15.80
2018-05-10T17:13:55.534Z,15.80
2018-05-10T17:16:32.438Z,15.80
2018-05-10T17:19:01.534Z,15.80
2018-05-10T17:21:30.004Z,15.70
2018-05-10T17:23:58.758Z,15.70
2018-05-10T17:26:28.075Z,15.70
2018-05-10T17:29:00.682Z,15.60
2018-05-10T17:31:29.287Z,15.60
2018-05-10T17:34:02.156Z,15.50
2018-05-10T17:36:32.871Z,15.40
2018-05-10T17:39:01.595Z,15.30
2018-05-10T17:41:42.402Z,15.30
2018-05-10T17:44:14.130Z,15.20
2018-05-10T17:46:42.871Z,15.20
2018-05-10T17:49:11.549Z,15.20
2018-05-10T17:51:42.275Z,15.20
2018-05-10T17:54:10.978Z,15.20
2018-05-10T17:56:42.872Z,15.10
2018-05-10T17:59:11.961Z,15.10
2018-05-10T18:01:40.727Z,15.10
2018-05-10T18:04:29.109Z,15.10
2018-05-10T18:06:57.782Z,15.10
2018-05-10T18:09:26.446Z,15.20
2018-05-10T18:12:15.082Z,15.10
2018-05-10T18:14:49.548Z,15.10
2018-05-10T18:20:17.234Z,15.00
2018-05-10T18:22:45.921Z,15.00
2018-05-10T18:25:17.674Z,15.00
2018-05-10T18:27:46.351Z,15.00
2018-05-10T18:30:15.036Z,14.90
2018-05-10T18:32:44.907Z,14.90
2018-05-10T18:35:19.786Z,14.90
2018-05-10T18:37:51.583Z,15.00
2018-05-10T18:40:21.084Z,15.00
2018-05-10T18:42:49.746Z,15.00
2018-05-10T18:45:34.396Z,15.00
2018-05-10T18:48:03.285Z,15.00
2018-05-10T18:50:32.643Z,15.00
2018-05-10T18:53:01.838Z,15.00
2018-05-10T18:55:30.451Z,15.00
2018-05-10T18:57:59.097Z,15.00
2018-05-10T19:00:27.703Z,15.00
2018-05-10T19:02:57.097Z,14.90
2018-05-10T19:05:25.799Z,14.90
2018-05-10T19:07:55.197Z,14.90
2018-05-10T19:10:23.837Z,14.90
2018-05-10T19:12:54.546Z,14.90
2018-05-10T19:15:23.294Z,14.90
2018-05-10T19:17:52.828Z,14.90
2018-05-10T19:20:22.217Z,14.90
2018-05-10T19:22:50.860Z,14.90
2018-05-10T19:25:19.491Z,14.90
2018-05-10T19:27:47.616Z,14.90
2018-05-10T19:30:16.260Z,14.90
2018-05-10T19:32:45.636Z,14.80
2018-05-10T19:35:14.350Z,14.80
2018-05-10T19:37:43.001Z,14.80
2018-05-10T19:40:11.672Z,14.80
2018-05-10T19:42:40.311Z,14.70
2018-05-10T19:45:08.964Z,14.70
2018-05-10T19:48:01.124Z,14.70
2018-05-10T19:50:29.751Z,14.70
2018-05-10T19:52:58.454Z,14.70
2018-05-10T19:55:27.184Z,14.70
2018-05-10T19:57:57.869Z,14.70
2018-05-10T20:00:27.377Z,14.60
2018-05-10T20:02:58.036Z,14.60
2018-05-10T20:05:26.703Z,14.70
2018-05-10T20:07:58.975Z,14.60
2018-05-10T20:10:27.697Z,14.60
2018-05-10T20:12:56.345Z,14.60
2018-05-10T20:15:25.915Z,14.60
2018-05-10T20:17:54.561Z,14.60
2018-05-10T20:20:23.231Z,14.60
2018-05-10T20:22:51.848Z,14.60
2018-05-10T20:25:22.378Z,14.50
2018-05-10T20:27:51.059Z,14.50
2018-05-10T20:30:19.747Z,14.50
2018-05-10T20:32:48.444Z,14.50
2018-05-10T20:35:17.105Z,14.40
2018-05-10T20:37:45.720Z,14.40
2018-05-10T20:40:15.502Z,14.40
2018-05-10T20:42:45.816Z,14.40
2018-05-10T20:45:24.363Z,14.40
2018-05-10T20:47:53.028Z,14.40
2018-05-10T20:50:22.501Z,14.40
2018-05-10T20:52:51.357Z,14.40
2018-05-10T20:55:19.952Z,14.40
2018-05-10T20:57:48.612Z,14.40
2018-05-10T21:00:18.202Z,14.30
2018-05-10T21:02:46.833Z,14.30
2018-05-10T21:05:15.469Z,14.30
2018-05-10T21:07:44.087Z,14.30
2018-05-10T21:10:18.664Z,14.20
2018-05-10T21:12:47.384Z,14.20
2018-05-10T21:15:17.248Z,14.20
2018-05-10T21:17:45.908Z,14.20
2018-05-10T21:20:15.264Z,14.10
2018-05-10T21:22:43.889Z,14.10
2018-05-10T21:25:13.286Z,14.20
2018-05-10T21:27:41.896Z,14.20
2018-05-10T21:30:16.396Z,14.20
2018-05-10T21:32:45.525Z,14.20
2018-05-10T21:35:14.179Z,14.20
2018-05-10T21:37:43.566Z,14.20
2018-05-10T21:40:12.214Z,14.20
2018-05-10T21:42:40.547Z,14.20
2018-05-10T21:45:09.133Z,14.20
2018-05-10T21:47:37.760Z,14.20
2018-05-10T21:50:06.921Z,14.20
2018-05-10T21:52:35.540Z,14.20
2018-05-10T21:55:03.984Z,14.20
2018-05-10T21:57:33.592Z,14.10
2018-05-10T22:00:02.220Z,14.10
2018-05-10T22:02:30.868Z,14.10
2018-05-10T22:04:59.462Z,14.10
2018-05-10T22:07:28.123Z,14.10
2018-05-10T22:09:56.727Z,14.00
2018-05-10T22:12:25.371Z,13.90
2018-05-10T22:14:54.034Z,14.00
2018-05-10T22:17:22.634Z,13.90
2018-05-10T22:19:51.460Z,14.00
2018-05-10T22:22:20.101Z,14.00
2018-05-10T22:24:48.745Z,14.00
2018-05-10T22:27:17.400Z,14.00
2018-05-10T22:29:46.017Z,14.00
2018-05-10T22:32:14.660Z,14.00
2018-05-10T22:34:43.276Z,14.00
2018-05-10T22:37:11.706Z,14.00
2018-05-10T22:39:40.370Z,14.00
2018-05-10T22:42:08.979Z,14.00
2018-05-10T22:44:38.372Z,14.00
2018-05-10T22:47:07.021Z,14.00
2018-05-10T22:49:35.682Z,14.00
2018-05-10T22:52:04.293Z,14.00
2018-05-10T22:54:32.905Z,14.00
2018-05-10T22:57:01.593Z,14.10
2018-05-10T22:59:30.160Z,14.00
2018-05-10T23:01:58.794Z,14.10
2018-05-10T23:04:27.471Z,14.10
2018-05-10T23:06:56.170Z,14.10
2018-05-10T23:09:24.800Z,14.10
2018-05-10T23:11:53.112Z,14.00
2018-05-10T23:14:21.791Z,14.10
2018-05-10T23:16:50.654Z,14.10
2018-05-10T23:19:19.272Z,14.10
2018-05-10T23:21:48.139Z,14.10
2018-05-10T23:24:16.744Z,14.10
2018-05-10T23:26:45.365Z,14.10
2018-05-10T23:29:14.787Z,14.10
2018-05-10T23:31:44.152Z,14.10
2018-05-10T23:34:12.778Z,14.00
2018-05-10T23:36:41.413Z,14.00
2018-05-10T23:39:10.075Z,14.00
2018-05-10T23:41:38.700Z,14.00
2018-05-10T23:44:07.279Z,14.00
2018-05-10T23:46:35.990Z,14.00
2018-05-10T23:49:05.506Z,13.90
2018-05-10T23:51:34.939Z,13.90
2018-05-10T23:54:04.715Z,13.90
2018-05-10T23:56:33.324Z,13.90
2018-05-10T23:59:02.870Z,13.90
